Time;durP1;ratioP1;P1;durP2;ratioP2;P2;SDS_P1;SDS_P2;PMS_P1;PMS_P2;Temp;Humidity;BMP_temperature;BMP_pressure;BME280_temperature;BME280_humidity;BME280_pressure;Samples;Min_cycle;Max_cycle;Signal;HPM_P1;HPM_P2
2021/10/11 00:00:58;;;;;;;57.58;30.33;;;7.20;99.90;;;;;;5102861;28;20604;-56
2021/10/11 00:03:23;;;;;;;59.70;32.83;;;7.10;99.90;;;;;;5104931;28;20044;-55
2021/10/11 00:05:49;;;;;;;;;;;7.10;99.90;;;;;;5104653;28;20047;-55
2021/10/11 00:08:14;;;;;;;66.22;32.35;;;7.00;99.90;;;;;;5100146;28;19915;-54
2021/10/11 00:10:40;;;;;;;;;;;6.90;99.90;;;;;;5105118;28;20060;-60
2021/10/11 00:13:05;;;;;;;62.42;30.23;;;6.90;99.90;;;;;;5106029;28;19922;-59
2021/10/11 00:15:31;;;;;;;;;;;6.90;99.90;;;;;;5104739;28;20042;-53
2021/10/11 00:17:57;;;;;;;71.72;33.72;;;6.90;99.90;;;;;;5094536;28;20443;-57
2021/10/11 00:20:23;;;;;;;;;;;6.80;99.90;;;;;;5091305;28;20094;-60
2021/10/11 00:22:49;;;;;;;69.50;33.63;;;6.80;99.90;;;;;;5091196;28;19966;-57
2021/10/11 00:25:15;;;;;;;;;;;6.80;99.90;;;;;;5091300;28;20044;-56
2021/10/11 00:27:41;;;;;;;76.43;37.80;;;6.80;99.90;;;;;;5090838;28;19923;-56
2021/10/11 00:30:09;;;;;;;65.88;34.70;;;6.90;99.90;;;;;;5090000;28;20032;-59
2021/10/11 00:32:35;;;;;;;71.88;37.42;;;7.00;99.90;;;;;;5089881;28;20067;-58
2021/10/11 00:35:01;;;;;;;;;;;7.10;99.90;;;;;;5089290;28;20483;-57
2021/10/11 00:37:27;;;;;;;69.00;33.72;;;7.10;99.90;;;;;;5083309;28;19922;-58
2021/10/11 00:39:52;;;;;;;65.18;34.85;;;7.10;99.90;;;;;;5069937;28;20043;-59
2021/10/11 00:42:18;;;;;;;;;;;7.10;99.90;;;;;;5070244;28;20125;-60
2021/10/11 00:44:44;;;;;;;58.47;30.20;;;7.10;99.90;;;;;;5069965;28;20016;-57
2021/10/11 00:47:09;;;;;;;;;;;7.10;99.90;;;;;;5070082;28;20128;-59
2021/10/11 00:49:35;;;;;;;72.68;35.50;;;7.10;99.90;;;;;;5069538;28;19923;-57
2021/10/11 00:52:01;;;;;;;78.45;37.83;;;7.10;99.90;;;;;;5069849;28;20053;-58
2021/10/11 00:54:27;;;;;;;;;;;7.10;99.90;;;;;;5070079;28;20047;-58
2021/10/11 00:56:53;;;;;;;88.93;41.30;;;7.20;99.90;;;;;;5069578;28;20307;-57
2021/10/11 00:59:19;;;;;;;;;;;7.10;99.90;;;;;;5076021;28;20573;-56
2021/10/11 01:01:44;;;;;;;82.57;39.33;;;7.10;99.90;;;;;;5088749;28;19926;-57
2021/10/11 01:04:10;;;;;;;;;;;7.10;99.90;;;;;;5081717;28;20031;-59
2021/10/11 01:06:38;;;;;;;84.07;39.80;;;7.10;99.90;;;;;;5089643;28;20364;-60
2021/10/11 01:09:05;;;;;;;86.85;41.45;;;7.10;99.90;;;;;;5086922;28;20152;-57
2021/10/11 01:11:31;;;;;;;88.80;42.67;;;7.10;99.90;;;;;;5089696;28;20036;-58
2021/10/11 01:13:57;;;;;;;;;;;7.10;99.90;;;;;;5090864;28;20558;-56
2021/10/11 01:16:22;;;;;;;87.38;42.65;;;7.10;99.90;;;;;;5088868;28;19919;-57
2021/10/11 01:18:48;;;;;;;;;;;7.20;99.90;;;;;;5090390;28;20044;-57
2021/10/11 01:21:14;;;;;;;92.53;44.00;;;7.10;99.90;;;;;;5089657;28;20391;-56
2021/10/11 01:23:39;;;;;;;;;;;7.20;99.90;;;;;;5090089;28;20533;-55
2021/10/11 01:26:05;;;;;;;74.22;37.08;;;7.10;99.90;;;;;;5089536;28;20261;-56
2021/10/11 01:28:30;;;;;;;77.22;41.13;;;7.20;99.90;;;;;;5089033;28;20091;-56
2021/10/11 01:30:56;;;;;;;;;;;7.20;99.90;;;;;;5084381;28;20514;-57
2021/10/11 01:33:22;;;;;;;96.03;49.33;;;7.30;99.90;;;;;;5089433;28;19919;-58
2021/10/11 01:35:47;;;;;;;;;;;7.30;99.90;;;;;;5090283;28;20407;-54
2021/10/11 01:38:13;;;;;;;103.60;46.35;;;7.40;99.90;;;;;;5089977;28;19992;-60
2021/10/11 01:40:40;;;;;;;;;;;7.30;99.90;;;;;;5089365;28;20487;-57
2021/10/11 01:43:06;;;;;;;95.88;45.15;;;7.40;99.90;;;;;;5089652;28;19919;-55
2021/10/11 01:45:32;;;;;;;112.80;53.17;;;7.50;99.90;;;;;;5085729;28;20048;-58
2021/10/11 01:47:59;;;;;;;106.35;49.33;;;7.50;99.90;;;;;;5087720;28;20127;-59
2021/10/11 01:50:25;;;;;;;94.93;47.67;;;7.50;99.90;;;;;;5087917;28;20399;-59
2021/10/11 01:52:50;;;;;;;;;;;7.60;99.90;;;;;;5089368;28;20111;-58
2021/10/11 01:55:16;;;;;;;107.80;52.17;;;7.60;99.90;;;;;;5088321;28;19957;-58
2021/10/11 01:57:41;;;;;;;;;;;7.70;99.90;;;;;;5089419;28;20096;-59
2021/10/11 02:00:08;;;;;;;98.68;45.33;;;7.70;99.90;;;;;;5089195;28;19916;-60
2021/10/11 02:02:36;;;;;;;94.78;47.53;;;7.80;99.90;;;;;;5085743;28;20024;-54
2021/10/11 02:05:02;;;;;;;91.53;44.53;;;7.80;99.90;;;;;;5085780;28;20043;-60
2021/10/11 02:07:28;;;;;;;80.93;40.75;;;7.90;99.90;;;;;;5085492;28;20036;-60
2021/10/11 02:09:53;;;;;;;;;;;8.00;99.90;;;;;;5088731;28;20094;-58
2021/10/11 02:12:19;;;;;;;84.85;38.67;;;8.00;99.90;;;;;;5088438;28;20349;-57
2021/10/11 02:14:45;;;;;;;76.35;38.47;;;8.10;99.90;;;;;;5088763;28;20040;-55
2021/10/11 02:17:10;;;;;;;;;;;8.10;99.90;;;;;;5088936;28;20048;-60
2021/10/11 02:19:36;;;;;;;82.22;39.95;;;8.10;99.90;;;;;;5088714;28;20292;-61
2021/10/11 02:22:02;;;;;;;82.68;40.08;;;8.20;99.90;;;;;;5087452;28;20039;-59
2021/10/11 02:24:27;;;;;;;;;;;8.20;99.90;;;;;;5089266;28;20055;-58
2021/10/11 02:26:53;;;;;;;80.13;38.67;;;8.20;99.90;;;;;;5083781;28;19923;-60
2021/10/11 02:29:18;;;;;;;;;;;8.20;99.90;;;;;;5083103;28;20037;-53
2021/10/11 02:31:44;;;;;;;76.07;36.88;;;8.30;99.90;;;;;;5086073;28;19916;-62
2021/10/11 02:34:10;;;;;;;;;;;8.30;99.90;;;;;;5088842;28;20070;-57
2021/10/11 02:36:35;;;;;;;81.90;38.45;;;8.30;99.90;;;;;;5088367;28;20406;-60
2021/10/11 02:39:01;;;;;;;;;;;8.40;99.90;;;;;;5084138;28;20130;-60
2021/10/11 02:41:27;;;;;;;69.00;34.30;;;8.40;99.90;;;;;;5087209;28;20299;-56
2021/10/11 02:43:52;;;;;;;;;;;8.40;99.90;;;;;;5088449;28;20051;-56
2021/10/11 02:46:18;;;;;;;70.22;34.95;;;8.50;99.90;;;;;;5087033;28;19992;-54
2021/10/11 02:48:43;;;;;;;;;;;8.50;99.90;;;;;;5087664;28;20065;-51
2021/10/11 02:51:09;;;;;;;65.47;32.53;;;8.50;99.90;;;;;;5085493;28;19916;-52
2021/10/11 02:53:34;;;;;;;;;;;8.60;99.90;;;;;;5087781;28;20043;-54
2021/10/11 02:56:00;;;;;;;61.95;31.20;;;8.60;99.90;;;;;;5086593;28;19912;-53
2021/10/11 02:58:26;;;;;;;70.30;34.15;;;8.60;99.90;;;;;;5088690;28;20392;-60
2021/10/11 03:00:51;;;;;;;;;;;8.70;99.90;;;;;;5086500;28;20070;-59
2021/10/11 03:03:17;;;;;;;77.50;38.50;;;8.70;99.90;;;;;;5087621;28;19912;-58
2021/10/11 03:05:42;;;;;;;;;;;8.70;99.90;;;;;;5088126;28;20492;-59
2021/10/11 03:08:08;;;;;;;64.88;33.97;;;8.70;99.90;;;;;;5083416;28;20397;-60
2021/10/11 03:10:33;;;;;;;;;;;8.70;99.90;;;;;;5086839;28;20052;-61
2021/10/11 03:12:59;;;;;;;66.70;34.30;;;8.70;99.90;;;;;;5086920;28;19915;-58
2021/10/11 03:15:24;;;;;;;;;;;8.70;99.90;;;;;;5087265;28;20036;-57
2021/10/11 03:17:50;;;;;;;67.78;33.83;;;8.80;99.90;;;;;;5087580;28;19915;-60
2021/10/11 03:20:15;;;;;;;;;;;8.80;99.90;;;;;;5086327;28;20066;-56
2021/10/11 03:22:41;;;;;;;70.82;35.85;;;8.90;99.90;;;;;;5087634;28;19924;-62
2021/10/11 03:25:07;;;;;;;;;;;8.80;99.90;;;;;;5087779;28;20364;-60
2021/10/11 03:27:32;;;;;;;78.93;35.75;;;8.90;99.90;;;;;;5086833;28;20426;-56
2021/10/11 03:29:58;;;;;;;;;;;8.90;99.90;;;;;;5087210;28;20097;-60
2021/10/11 03:32:23;;;;;;;76.28;35.50;;;8.90;99.90;;;;;;5085746;28;19916;-55
2021/10/11 03:34:49;;;;;;;;;;;8.90;99.90;;;;;;5087959;28;20052;-56
2021/10/11 03:37:15;;;;;;;70.80;35.25;;;8.90;99.90;;;;;;5082585;28;19952;-60
2021/10/11 03:39:40;;;;;;;;;;;8.90;99.90;;;;;;5086966;28;20036;-55
2021/10/11 03:42:06;;;;;;;83.90;41.88;;;8.90;99.90;;;;;;5085639;28;19916;-58
2021/10/11 03:44:31;;;;;;;;;;;8.90;99.90;;;;;;5083588;28;20040;-55
2021/10/11 03:46:57;;;;;;;83.65;38.40;;;8.90;99.90;;;;;;5086569;28;19927;-61
2021/10/11 03:49:22;;;;;;;;;;;8.90;99.90;;;;;;5086530;28;20419;-54
2021/10/11 03:51:48;;;;;;;78.65;38.65;;;8.90;99.90;;;;;;5086489;28;20288;-60
2021/10/11 03:54:13;;;;;;;;;;;8.90;99.90;;;;;;5091356;28;20096;-59
2021/10/11 03:56:39;;;;;;;86.82;41.78;;;8.90;99.90;;;;;;5090867;28;20069;-58
2021/10/11 03:59:05;;;;;;;92.50;41.00;;;8.90;99.90;;;;;;5090272;28;20082;-62
2021/10/11 04:01:30;;;;;;;;;;;8.90;99.90;;;;;;5089817;28;20511;-60
2021/10/11 04:03:56;;;;;;;83.22;39.80;;;9.00;99.90;;;;;;5090731;28;20062;-61
2021/10/11 04:06:22;;;;;;;;;;;9.00;99.90;;;;;;5090799;28;20047;-61
2021/10/11 04:08:49;;;;;;;86.55;42.78;;;8.90;99.90;;;;;;5085539;28;19919;-61
2021/10/11 04:13:44;;;;;;;93.03;44.15;;;8.90;99.90;;;;;;5089920;28;20082;-58
2021/10/11 04:16:11;;;;;;;97.70;45.58;;;8.90;99.90;;;;;;5087143;28;20050;-59
2021/10/11 04:18:37;;;;;;;91.55;44.42;;;9.00;99.90;;;;;;5089258;28;20129;-61
2021/10/11 04:21:02;;;;;;;79.38;38.90;;;8.90;99.90;;;;;;5089895;28;20090;-60
2021/10/11 04:23:28;;;;;;;;;;;9.00;99.90;;;;;;5090241;28;20435;-60
2021/10/11 04:25:54;;;;;;;76.45;38.22;;;9.00;99.90;;;;;;5089940;28;19920;-56
2021/10/11 04:28:20;;;;;;;;;;;8.90;99.90;;;;;;5090419;28;20105;-62
2021/10/11 04:30:45;;;;;;;80.97;37.03;;;9.00;99.90;;;;;;5082712;28;19912;-59
2021/10/11 04:33:11;;;;;;;;;;;9.00;99.90;;;;;;5075610;28;20043;-58
2021/10/11 04:35:38;;;;;;;78.68;36.53;;;9.00;99.90;;;;;;5089974;28;19934;-61
2021/10/11 04:38:04;;;;;;;82.20;36.10;;;8.90;99.90;;;;;;5086157;28;20032;-61
2021/10/11 04:40:29;;;;;;;;;;;8.90;99.90;;;;;;5089400;28;20950;-61
2021/10/11 04:42:55;;;;;;;78.85;35.40;;;9.00;99.90;;;;;;5089401;28;19919;-61
2021/10/11 04:45:27;;;;;;;;;;;8.90;99.90;;;;;;5089776;28;20057;-64
2021/10/11 04:48:11;;;;;;;61.88;29.98;;;9.00;99.90;;;;;;5089643;28;19922;-57
2021/10/11 04:50:37;;;;;;;70.18;32.85;;;9.00;99.90;;;;;;5088917;28;20758;-61
2021/10/11 04:53:04;;;;;;;57.55;29.08;;;9.00;99.90;;;;;;5087334;28;20046;-59
2021/10/11 04:55:31;;;;;;;66.82;30.88;;;9.00;99.90;;;;;;5086156;28;20071;-57
2021/10/11 04:57:56;;;;;;;;;;;9.00;99.90;;;;;;5089459;28;20040;-63
2021/10/11 05:00:22;;;;;;;47.08;22.95;;;9.00;99.90;;;;;;5088818;28;20005;-60
2021/10/11 05:02:48;;;;;;;60.10;30.45;;;9.00;99.90;;;;;;5090544;28;20096;-59
2021/10/11 05:05:13;;;;;;;;;;;9.00;99.90;;;;;;5089277;28;20040;-62
2021/10/11 05:07:39;;;;;;;181.23;92.40;;;9.10;99.90;;;;;;5085972;28;19985;-59
2021/10/11 05:10:05;;;;;;;;;;;9.10;99.90;;;;;;5086309;28;20043;-59
2021/10/11 05:12:31;;;;;;;74.30;33.08;;;9.10;99.90;;;;;;5086691;28;19923;-59
2021/10/11 05:14:56;;;;;;;;;;;9.10;99.90;;;;;;5089283;28;20032;-61
2021/10/11 05:17:22;;;;;;;39.75;19.45;;;9.10;99.90;;;;;;5090829;28;19916;-56
2021/10/11 05:19:47;;;;;;;;;;;9.10;99.90;;;;;;5091615;28;20129;-58
2021/10/11 05:22:13;;;;;;;46.92;22.50;;;9.10;99.90;;;;;;5091104;28;19920;-58
2021/10/11 05:24:41;;;;;;;;;;;9.20;99.90;;;;;;5092182;28;20123;-63
2021/10/11 05:27:07;;;;;;;22.48;10.73;;;9.20;99.90;;;;;;5089733;28;19977;-61
2021/10/11 05:29:32;;;;;;;;;;;9.20;99.90;;;;;;5090410;28;20039;-61
2021/10/11 05:31:58;;;;;;;13.73;7.63;;;9.10;99.90;;;;;;5091335;28;19941;-61
2021/10/11 05:34:25;;;;;;;;;;;9.10;99.90;;;;;;5091074;28;20047;-60
2021/10/11 05:36:51;;;;;;;22.20;8.55;;;9.10;99.90;;;;;;5087971;28;19916;-58
2021/10/11 05:39:17;;;;;;;;;;;9.10;99.90;;;;;;5087364;28;20036;-58
2021/10/11 05:41:42;;;;;;;8.10;5.82;;;9.10;99.90;;;;;;5084987;28;19916;-59
2021/10/11 05:44:08;;;;;;;;;;;9.10;99.90;;;;;;5090040;28;20058;-57
2021/10/11 05:46:33;;;;;;;13.50;6.70;;;9.10;99.90;;;;;;5089676;28;19920;-56
2021/10/11 05:49:01;;;;;;;;;;;9.00;99.90;;;;;;5089522;28;20036;-59
2021/10/11 05:51:27;;;;;;;19.60;11.15;;;9.00;99.90;;;;;;5089713;28;19969;-62
2021/10/11 05:53:52;;;;;;;;;;;9.00;99.90;;;;;;5090933;28;20431;-59
2021/10/11 05:56:18;;;;;;;44.10;23.10;;;9.00;99.90;;;;;;5089091;28;19919;-58
2021/10/11 05:58:44;;;;;;;;;;;9.00;99.90;;;;;;5090387;28;20035;-62
2021/10/11 06:01:10;;;;;;;16.58;8.40;;;9.00;99.90;;;;;;5086176;28;19916;-62
2021/10/11 06:03:36;;;;;;;14.38;8.23;;;9.00;99.90;;;;;;5091151;28;20036;-59
2021/10/11 06:06:01;;;;;;;;;;;9.10;99.90;;;;;;5089746;28;20128;-62
2021/10/11 06:08:27;;;;;;;10.18;4.97;;;9.00;99.90;;;;;;5085274;28;20725;-61
2021/10/11 06:10:54;;;;;;;;;;;9.00;99.90;;;;;;5089836;28;20032;-60
2021/10/11 06:13:21;;;;;;;17.02;8.93;;;9.10;99.90;;;;;;5089708;28;20310;-57
2021/10/11 06:15:47;;;;;;;52.15;25.33;;;9.10;99.90;;;;;;5087912;28;20044;-58
2021/10/11 06:18:12;;;;;;;;;;;9.10;99.90;;;;;;5072803;28;20692;-59
2021/10/11 06:20:38;;;;;;;50.72;25.65;;;9.10;99.90;;;;;;5090483;28;19916;-60
2021/10/11 06:23:04;;;;;;;;;;;9.10;99.90;;;;;;5091308;28;20118;-61
2021/10/11 06:25:29;;;;;;;24.75;12.32;;;9.10;99.90;;;;;;5090286;28;19920;-61
2021/10/11 06:27:55;;;;;;;;;;;9.20;99.90;;;;;;5091171;28;20563;-61
2021/10/11 06:30:21;;;;;;;9.55;5.55;;;9.20;99.90;;;;;;5088229;28;20018;-59
2021/10/11 06:32:46;;;;;;;;;;;9.20;99.90;;;;;;5089821;28;20122;-56
2021/10/11 06:35:13;;;;;;;6.97;3.85;;;9.20;99.90;;;;;;5089074;28;20010;-59
2021/10/11 06:37:38;;;;;;;6.97;3.47;;;9.20;99.90;;;;;;5089053;28;20044;-59
2021/10/11 06:40:04;;;;;;;;;;;9.20;99.90;;;;;;5088484;28;20043;-59
2021/10/11 06:42:30;;;;;;;5.78;2.83;;;9.20;99.90;;;;;;5087770;28;19968;-60
2021/10/11 06:44:55;;;;;;;;;;;9.30;99.90;;;;;;5089057;28;20117;-57
2021/10/11 06:47:21;;;;;;;6.22;2.97;;;9.30;99.90;;;;;;5089388;28;20371;-58
2021/10/11 06:49:46;;;;;;;;;;;9.30;99.90;;;;;;5089332;28;20062;-61
2021/10/11 06:52:15;;;;;;;8.85;2.90;;;9.20;99.90;;;;;;5090281;28;20029;-52
2021/10/11 06:54:41;;;;;;;2.90;1.52;;;9.30;99.90;;;;;;5090082;28;20055;-57
2021/10/11 06:57:07;;;;;;;;;;;9.20;99.90;;;;;;5089383;28;20032;-61
2021/10/11 06:59:34;;;;;;;4.82;2.33;;;9.30;99.90;;;;;;5083160;28;19916;-58
2021/10/11 07:01:59;;;;;;;5.28;2.30;;;9.30;99.90;;;;;;5086939;28;20534;-62
2021/10/11 07:04:25;;;;;;;;;;;9.30;99.90;;;;;;5090771;28;20040;-56
2021/10/11 07:06:50;;;;;;;3.90;1.92;;;9.30;99.90;;;;;;5085526;28;19972;-59
2021/10/11 07:09:16;;;;;;;;;;;9.20;99.90;;;;;;5087544;28;20032;-60
2021/10/11 07:11:42;;;;;;;4.80;2.50;;;9.20;99.90;;;;;;5087836;28;19993;-59
2021/10/11 07:14:07;;;;;;;;;;;9.20;99.90;;;;;;5092570;28;20535;-59
2021/10/11 07:16:33;;;;;;;10.00;4.28;;;9.20;99.90;;;;;;5088174;28;20306;-57
2021/10/11 07:18:58;;;;;;;;;;;9.10;99.90;;;;;;5087215;28;20072;-58
2021/10/11 07:21:24;;;;;;;13.55;7.38;;;9.10;99.90;;;;;;5086895;28;20403;-59
2021/10/11 07:23:49;;;;;;;;;;;9.20;99.90;;;;;;5090145;28;20040;-58
2021/10/11 07:26:15;;;;;;;15.85;7.35;;;9.20;99.90;;;;;;5090066;28;20014;-61
2021/10/11 07:28:41;;;;;;;27.50;14.95;;;9.10;99.90;;;;;;5092596;28;20116;-60
2021/10/11 07:31:06;;;;;;;;;;;9.10;99.90;;;;;;5093903;28;20716;-60
2021/10/11 07:33:32;;;;;;;15.25;5.78;;;9.20;99.90;;;;;;5091396;28;20483;-60
2021/10/11 07:35:57;;;;;;;;;;;9.20;99.90;;;;;;5089478;28;20032;-61
2021/10/11 07:38:23;;;;;;;11.68;5.85;;;9.20;99.90;;;;;;5089406;28;20019;-61
2021/10/11 07:40:49;;;;;;;;;;;9.20;99.90;;;;;;5093357;28;20469;-59
2021/10/11 07:43:15;;;;;;;12.65;7.28;;;9.30;99.90;;;;;;5095224;28;19920;-59
2021/10/11 07:45:41;;;;;;;;;;;9.20;99.90;;;;;;5093880;28;20055;-60
2021/10/11 07:48:07;;;;;;;14.00;5.85;;;9.20;99.90;;;;;;5094684;28;19959;-59
2021/10/11 07:50:32;;;;;;;;;;;9.20;99.90;;;;;;5091908;28;20044;-61
2021/10/11 07:52:58;;;;;;;16.20;6.65;;;9.30;99.90;;;;;;5092148;28;19920;-62
2021/10/11 07:55:23;;;;;;;;;;;9.30;99.90;;;;;;5093344;28;20492;-64
2021/10/11 07:57:49;;;;;;;16.00;6.50;;;9.30;99.90;;;;;;5092409;28;20009;-62
2021/10/11 08:00:17;;;;;;;;;;;9.40;99.90;;;;;;5092455;28;20123;-61
2021/10/11 08:02:45;;;;;;;11.35;6.13;;;9.40;99.90;;;;;;5092982;28;20027;-58
2021/10/11 08:05:11;;;;;;;19.35;6.65;;;9.40;99.90;;;;;;5093483;28;20048;-59
2021/10/11 08:07:37;;;;;;;12.63;7.35;;;9.50;99.90;;;;;;5089747;28;20147;-57
2021/10/11 08:10:02;;;;;;;;;;;9.50;99.90;;;;;;5092945;28;20119;-62
2021/10/11 08:12:28;;;;;;;12.02;6.18;;;9.50;99.90;;;;;;5090329;28;19939;-61
2021/10/11 08:14:53;;;;;;;;;;;9.50;99.90;;;;;;5091984;28;20435;-62
2021/10/11 08:17:19;;;;;;;13.60;6.28;;;9.60;99.90;;;;;;5090398;28;19959;-57
2021/10/11 08:19:45;;;;;;;12.23;5.93;;;9.60;99.90;;;;;;5090880;28;20842;-64
2021/10/11 08:22:10;;;;;;;;;;;9.60;99.90;;;;;;5090789;28;20507;-62
2021/10/11 08:24:36;;;;;;;14.55;6.47;;;9.60;99.90;;;;;;5091956;28;20435;-58
2021/10/11 08:27:01;;;;;;;;;;;9.60;99.90;;;;;;5091237;28;20040;-62
2021/10/11 08:29:27;;;;;;;21.35;6.90;;;9.60;99.90;;;;;;5085741;28;19920;-62
2021/10/11 08:31:53;;;;;;;;;;;9.60;99.90;;;;;;5090304;28;20036;-55
2021/10/11 08:34:19;;;;;;;11.55;6.10;;;9.60;99.90;;;;;;5089476;28;19927;-59
2021/10/11 08:36:45;;;;;;;14.80;6.32;;;9.60;99.90;;;;;;5089516;28;20161;-63
2021/10/11 08:39:11;;;;;;;;;;;9.60;99.90;;;;;;5088604;28;20029;-60
2021/10/11 08:41:37;;;;;;;17.77;6.68;;;9.70;99.90;;;;;;5091128;28;19942;-61
2021/10/11 08:44:03;;;;;;;21.80;11.88;;;9.70;99.90;;;;;;5092023;28;20048;-63
2021/10/11 08:46:29;;;;;;;;;;;9.70;99.90;;;;;;5091982;28;20071;-61
2021/10/11 08:48:55;;;;;;;19.55;8.43;;;9.70;99.90;;;;;;5091657;28;20342;-61
2021/10/11 08:51:20;;;;;;;;;;;9.70;99.90;;;;;;5092190;28;20048;-61
2021/10/11 08:53:46;;;;;;;26.10;12.65;;;9.70;99.90;;;;;;5091469;28;19924;-60
2021/10/11 08:56:13;;;;;;;;;;;9.70;99.90;;;;;;5092734;28;20032;-60
2021/10/11 08:58:49;;;;;;;25.00;7.57;;;9.70;99.90;;;;;;5091812;28;19916;-60
2021/10/11 09:01:15;;;;;;;;;;;9.70;99.90;;;;;;5090167;28;20304;-58
2021/10/11 09:03:41;;;;;;;17.60;6.47;;;9.60;99.90;;;;;;5090233;28;19916;-59
2021/10/11 09:06:08;;;;;;;;;;;9.60;99.90;;;;;;5091007;28;20093;-61
2021/10/11 09:08:35;;;;;;;15.98;6.38;;;9.70;99.90;;;;;;5090197;28;19916;-61
2021/10/11 09:11:14;;;;;;;17.85;5.88;;;9.70;99.90;;;;;;5091278;28;20040;-62
2021/10/11 09:13:52;;;;;;;14.40;6.00;;;9.70;99.90;;;;;;5092789;28;20047;-61
2021/10/11 09:16:34;;;;;;;28.77;10.45;;;9.70;99.90;;;;;;5092884;28;20047;-62
2021/10/11 09:19:19;;;;;;;20.65;7.38;;;9.70;99.90;;;;;;5087979;28;20079;-61
2021/10/11 09:21:45;;;;;;;16.75;5.85;;;9.70;99.90;;;;;;5069603;28;20040;-57
2021/10/11 09:24:17;;;;;;;14.13;5.80;;;9.70;99.90;;;;;;5072253;28;20045;-61
2021/10/11 09:26:49;;;;;;;14.13;5.70;;;9.70;99.90;;;;;;5071319;28;20465;-63
2021/10/11 09:29:26;;;;;;;18.65;5.25;;;9.70;99.90;;;;;;5075934;28;20127;-61
2021/10/11 09:31:52;;;;;;;20.13;5.43;;;9.70;99.90;;;;;;5090163;28;20040;-58
2021/10/11 09:34:19;;;;;;;;;;;9.80;99.90;;;;;;5091221;28;20043;-59
2021/10/11 09:37:05;;;;;;;20.38;6.18;;;9.80;99.90;;;;;;5090316;28;20295;-58
2021/10/11 09:39:37;;;;;;;20.90;5.35;;;9.80;99.90;;;;;;5076337;28;20040;-61
2021/10/11 09:42:05;;;;;;;18.27;6.43;;;9.80;99.90;;;;;;5085170;28;20036;-60
2021/10/11 09:44:31;;;;;;;14.68;5.57;;;9.70;99.90;;;;;;5091771;28;20047;-60
2021/10/11 09:47:08;;;;;;;;;;;9.80;99.90;;;;;;5091352;28;20408;-62
2021/10/11 09:49:34;;;;;;;16.65;6.15;;;9.70;99.90;;;;;;5091108;28;20403;-62
2021/10/11 09:51:59;;;;;;;;;;;9.70;99.90;;;;;;5090414;28;20047;-61
2021/10/11 09:54:26;;;;;;;18.17;5.35;;;9.80;99.90;;;;;;5090660;28;20391;-59
2021/10/11 09:56:52;;;;;;;22.67;6.15;;;9.70;99.90;;;;;;5090552;28;20499;-57
2021/10/11 09:59:17;;;;;;;19.42;6.18;;;9.80;99.90;;;;;;5090765;28;20043;-58
2021/10/11 10:01:46;;;;;;;;;;;9.80;99.90;;;;;;5090499;28;20032;-56
2021/10/11 10:04:23;;;;;;;15.63;5.25;;;9.90;99.90;;;;;;5090313;28;19916;-58
2021/10/11 10:06:51;;;;;;;19.63;5.00;;;9.90;99.90;;;;;;5086293;28;20115;-60
2021/10/11 10:09:19;;;;;;;15.63;4.93;;;9.90;99.90;;;;;;5087084;28;20043;-61
2021/10/11 10:11:45;;;;;;;16.70;5.13;;;10.00;99.90;;;;;;5088901;28;20042;-59
2021/10/11 10:14:22;;;;;;;13.63;5.00;;;10.00;99.90;;;;;;5089298;28;20089;-62
2021/10/11 10:16:55;;;;;;;11.10;4.68;;;10.20;99.90;;;;;;5086877;28;20109;-62
2021/10/11 10:19:33;;;;;;;14.07;4.80;;;10.30;99.90;;;;;;5068122;28;20048;-61
2021/10/11 10:22:01;;;;;;;12.65;3.95;;;10.40;99.90;;;;;;5068457;28;20068;-60
2021/10/11 10:24:29;;;;;;;18.48;5.25;;;10.40;99.90;;;;;;5069686;28;20048;-59
2021/10/11 10:27:06;;;;;;;16.92;5.30;;;10.50;99.90;;;;;;5069419;28;20055;-61
2021/10/11 10:29:49;;;;;;;17.85;4.07;;;10.40;99.90;;;;;;5073188;28;20040;-58
2021/10/11 10:32:18;;;;;;;15.13;3.63;;;10.40;99.90;;;;;;5088288;28;20036;-57
2021/10/11 10:34:59;;;;;;;15.23;5.57;;;10.30;99.90;;;;;;5089752;28;20040;-61
2021/10/11 10:37:36;;;;;;;10.70;4.05;;;10.50;99.90;;;;;;5085177;28;20484;-61
2021/10/11 10:40:10;;;;;;;21.92;5.25;;;10.60;99.90;;;;;;5088845;28;20404;-60
2021/10/11 10:42:36;;;;;;;12.30;4.57;;;10.60;99.90;;;;;;5088516;28;20385;-61
2021/10/11 10:45:02;;;;;;;;;;;10.70;99.90;;;;;;5089626;28;20114;-59
2021/10/11 10:47:35;;;;;;;12.48;3.63;;;10.80;99.90;;;;;;5088232;28;19920;-57
2021/10/11 10:50:03;;;;;;;18.00;4.95;;;10.80;99.90;;;;;;5087859;28;20046;-61
2021/10/11 10:52:28;;;;;;;17.73;4.68;;;10.80;99.90;;;;;;5088405;28;20117;-60
2021/10/11 10:54:55;;;;;;;;;;;10.80;99.90;;;;;;5087928;28;20072;-60
2021/10/11 10:57:24;;;;;;;20.60;3.78;;;10.80;99.90;;;;;;5088631;28;19951;-59
2021/10/11 10:59:51;;;;;;;8.13;3.45;;;10.80;99.90;;;;;;5088298;28;20701;-59
2021/10/11 11:02:17;;;;;;;17.27;3.83;;;10.70;99.90;;;;;;5087759;28;20071;-58
2021/10/11 11:04:52;;;;;;;;;;;10.60;99.90;;;;;;5088824;28;20043;-59
2021/10/11 11:07:25;;;;;;;20.55;4.05;;;10.60;99.90;;;;;;5083651;28;20633;-58
2021/10/11 11:09:50;;;;;;;16.52;3.97;;;10.60;99.90;;;;;;5086136;28;20118;-61
2021/10/11 11:12:26;;;;;;;;;;;10.60;99.90;;;;;;5089606;28;20071;-61
2021/10/11 11:14:52;;;;;;;20.15;4.50;;;10.60;99.90;;;;;;5090696;28;19919;-61
2021/10/11 11:17:27;;;;;;;19.17;3.47;;;10.60;99.90;;;;;;5084654;28;20059;-61
2021/10/11 11:19:52;;;;;;;13.95;3.17;;;10.60;99.90;;;;;;5088958;28;20032;-61
2021/10/11 11:22:26;;;;;;;;;;;10.60;99.90;;;;;;5090846;28;20040;-61
2021/10/11 11:24:52;;;;;;;12.43;3.17;;;10.50;99.90;;;;;;5089358;28;20302;-62
2021/10/11 11:27:27;;;;;;;;;;;10.60;99.90;;;;;;5093354;28;20036;-60
2021/10/11 11:29:56;;;;;;;12.25;3.58;;;10.60;99.90;;;;;;5090253;28;20116;-62
2021/10/11 11:32:22;;;;;;;11.80;2.53;;;10.70;99.90;;;;;;5089805;28;20067;-61
2021/10/11 11:34:48;;;;;;;11.77;3.35;;;10.60;99.90;;;;;;5090513;28;20070;-61
2021/10/11 11:37:14;;;;;;;;;;;10.60;99.90;;;;;;5087964;28;20044;-59
2021/10/11 11:39:39;;;;;;;14.27;2.90;;;10.60;99.90;;;;;;5089704;28;20300;-55
2021/10/11 11:42:05;;;;;;;;;;;10.50;99.90;;;;;;5089881;28;20036;-61
2021/10/11 11:44:32;;;;;;;13.60;3.08;;;10.60;99.90;;;;;;5090876;28;20409;-61
2021/10/11 11:47:07;;;;;;;;;;;10.60;99.90;;;;;;5087992;28;20052;-60
2021/10/11 11:49:37;;;;;;;15.82;3.00;;;10.50;99.90;;;;;;5070889;28;20539;-62
2021/10/11 11:52:11;;;;;;;12.77;2.97;;;10.50;99.90;;;;;;5054506;28;20048;-62
2021/10/11 11:54:39;;;;;;;14.80;3.20;;;10.50;99.90;;;;;;5087812;28;20036;-59
2021/10/11 11:57:05;;;;;;;13.30;3.55;;;10.50;99.90;;;;;;5090282;28;20043;-59
2021/10/11 11:59:31;;;;;;;11.07;2.65;;;10.50;99.90;;;;;;5085577;28;20043;-61
2021/10/11 12:02:01;;;;;;;;;;;10.60;99.90;;;;;;5090069;28;20090;-60
2021/10/11 12:04:28;;;;;;;8.00;2.80;;;10.60;99.90;;;;;;5087128;28;19916;-61
2021/10/11 12:07:00;;;;;;;16.27;3.05;;;10.70;99.90;;;;;;5087729;28;20048;-62
2021/10/11 12:09:26;;;;;;;16.67;3.53;;;10.70;99.90;;;;;;5072929;28;20048;-62
2021/10/11 12:12:04;;;;;;;15.50;2.92;;;10.60;99.90;;;;;;5070238;28;20102;-61
2021/10/11 12:14:30;;;;;;;15.20;3.10;;;10.50;99.90;;;;;;5090416;28;20549;-59
2021/10/11 12:16:59;;;;;;;;;;;10.50;99.90;;;;;;5092367;28;20044;-61
2021/10/11 12:19:29;;;;;;;40.25;17.08;;;10.50;99.90;;;;;;5091866;28;19957;-59
2021/10/11 12:21:56;;;;;;;24.65;5.65;;;10.60;99.90;;;;;;5090642;28;20040;-62
2021/10/11 12:24:23;;;;;;;19.90;3.40;;;10.60;99.90;;;;;;5092492;28;20044;-60
2021/10/11 12:26:50;;;;;;;51.85;27.77;;;10.60;99.90;;;;;;5094926;28;20048;-59
2021/10/11 12:29:19;;;;;;;26.02;9.80;;;10.70;99.90;;;;;;5093014;28;20051;-61
2021/10/11 12:31:58;;;;;;;13.75;4.47;;;10.70;99.90;;;;;;5091923;28;20085;-60
2021/10/11 12:34:32;;;;;;;20.50;6.95;;;10.80;99.90;;;;;;5092760;28;20044;-60
2021/10/11 12:37:00;;;;;;;14.63;3.65;;;10.80;99.90;;;;;;5092204;28;20052;-61
2021/10/11 12:39:33;;;;;;;17.05;4.53;;;10.90;99.90;;;;;;5086265;28;20745;-61
2021/10/11 12:42:00;;;;;;;12.27;3.13;;;10.90;99.90;;;;;;5094310;28;20044;-60
2021/10/11 12:44:57;;;;;;;16.17;4.60;;;11.00;99.90;;;;;;5094419;28;20036;-61
2021/10/11 12:47:31;;;;;;;12.23;2.67;;;11.10;99.90;;;;;;5093005;28;20093;-62
2021/10/11 12:50:06;;;;;;;13.25;3.45;;;11.10;99.90;;;;;;5092926;28;20040;-55
2021/10/11 12:52:41;;;;;;;17.48;3.67;;;11.10;99.90;;;;;;5091785;28;20067;-63
2021/10/11 12:55:20;;;;;;;17.85;3.80;;;11.10;99.90;;;;;;5091772;28;20043;-60
2021/10/11 12:57:48;;;;;;;13.65;3.50;;;11.10;99.90;;;;;;5090301;28;20043;-61
2021/10/11 13:00:16;;;;;;;17.83;3.20;;;11.20;99.90;;;;;;5086555;28;20390;-63
2021/10/11 13:02:42;;;;;;;12.43;2.85;;;11.20;99.90;;;;;;5089970;28;20036;-61
2021/10/11 13:05:08;;;;;;;;;;;11.20;99.90;;;;;;5089730;28;20579;-59
2021/10/11 13:07:35;;;;;;;10.88;2.15;;;11.20;99.90;;;;;;5085943;28;19920;-59
2021/10/11 13:10:01;;;;;;;15.57;2.70;;;11.20;99.90;;;;;;5087502;28;20040;-61
2021/10/11 13:12:27;;;;;;;8.60;2.33;;;11.20;99.90;;;;;;5089655;28;20036;-61
2021/10/11 13:14:53;;;;;;;16.83;3.15;;;11.20;99.90;;;;;;5089604;28;20047;-61